Pagrindinis puslapis
METAR-TAF:

METAR-TAF

Oro uostai :

Bergamo oro uostas

Bergamas, Italija

platuma: 45-40N, ilguma: 009-42E, Aukštis: 238 m

Dabartinis oras

Ataskaita buvo paskelbta 44 minutes, ne 12:20 UTC
Vėjas 4 kt iš Pietvakarių, svyruoja nuo Pietų/Pietvakarių ir Vakarų
Temperatūra 19°C
Drėgmė 34%
Slėgis 1031 hPa
Matomumas 10 km arba daugiau
nėra debesų žemiau 1500 m ir nėra kamuolinių lietaus debesų

METAR: LIME 251220Z 23004KT 200V260 CAVOK 19/03 Q1031 NOSIG

Laikas: 14:04 (13:04 UTC)

Prognozė

Ataskaita buvo paskelbta 2 valandos ir 4 minutes, ne 11:00 UTC
Prognozė galioja nuo 25 metu 12 UTC su 26 metu 12 UTC
Vėjas 4 kt nuo kintamojo kryptimis
Matomumas 10 km arba daugiau
nėra debesų žemiau 1500 m ir nėra kamuolinių lietaus debesų

TAF: LIME 251100Z 2512/2612 VRB04KT CAVOK

Orai ataskaitas ir orų prognozės (METAR, TAF).

turimą stotys yra geltonos ir raudonos taškus žemėlapyje.

Perkelti pele per norėdami pamatyti stoties vardą.

Tada spustelėkite, norėdami matyti oro stebėjimo ir prognozės.

Norėdami pakeisti žemėlapį: spustelėkite ant žalios mygtukų su juodo kryžiaus žemyn,; žalią mygtuką su brūkšneliu, jei norite nutolinti; arba žalių rodyklių gretimoms žemėlapius.


METAR-TAF: